Gibson, Mississippi
Current Conditions -  °F | °C
As of 5:35 AM on Saturday 20 Dec 2014 (Local Time) from KM40 Reporting Station
Haze Haze  
Wind Chill: 34°   Ceiling: Unl
Heat Index: 37°   Visibility: 5mi
Dew Point: 23°   Wind: 5mph
Humidity: 56%   Direction: 360°N
Pressure: 30.22"   Gusts: NA
Location:  33.8251°N, 88.6185°W
Report Text: KM40 201135Z AUTO 36004KT 5SM HZ CLR 03/M05 A3022 RMK AO2
Loading
Personal Weather Stations






























Interactive Weather Map New forecast layout! Learn more

10-Day Weather Forecast

Advertisements
Track Severe Weather on mobile